sensor_id;sensor_type;location;lat;lon;timestamp;P1;durP1;ratioP1;P2;durP2;ratioP2
62852;SDS011;49205;44.868;38.140;2023-12-07T00:01:50;7.17;;;4.95;;
62852;SDS011;49205;44.868;38.140;2023-12-07T00:04:18;8.65;;;4.55;;
62852;SDS011;49205;44.868;38.140;2023-12-07T00:06:47;9.65;;;4.70;;
62852;SDS011;49205;44.868;38.140;2023-12-07T00:09:16;5.55;;;3.33;;
62852;SDS011;49205;44.868;38.140;2023-12-07T00:11:44;7.28;;;4.95;;
62852;SDS011;49205;44.868;38.140;2023-12-07T00:14:13;6.17;;;3.77;;
62852;SDS011;49205;44.868;38.140;2023-12-07T00:16:42;7.90;;;4.20;;
62852;SDS011;49205;44.868;38.140;2023-12-07T00:19:10;6.20;;;4.10;;
62852;SDS011;49205;44.868;38.140;2023-12-07T00:21:39;7.47;;;4.90;;
62852;SDS011;49205;44.868;38.140;2023-12-07T00:24:08;7.70;;;4.75;;
62852;SDS011;49205;44.868;38.140;2023-12-07T00:26:37;6.12;;;4.60;;
62852;SDS011;49205;44.868;38.140;2023-12-07T00:29:05;6.62;;;4.17;;
62852;SDS011;49205;44.868;38.140;2023-12-07T00:31:34;6.35;;;4.30;;
62852;SDS011;49205;44.868;38.140;2023-12-07T00:34:02;6.22;;;2.92;;
62852;SDS011;49205;44.868;38.140;2023-12-07T00:36:31;7.15;;;4.42;;
62852;SDS011;49205;44.868;38.140;2023-12-07T00:39:01;5.87;;;3.60;;
62852;SDS011;49205;44.868;38.140;2023-12-07T00:41:31;6.65;;;3.98;;
62852;SDS011;49205;44.868;38.140;2023-12-07T00:44:00;16.57;;;5.80;;
62852;SDS011;49205;44.868;38.140;2023-12-07T00:46:29;7.83;;;4.12;;
62852;SDS011;49205;44.868;38.140;2023-12-07T00:48:58;7.28;;;5.08;;
62852;SDS011;49205;44.868;38.140;2023-12-07T00:51:27;10.58;;;4.67;;
62852;SDS011;49205;44.868;38.140;2023-12-07T00:53:55;9.98;;;5.80;;
62852;SDS011;49205;44.868;38.140;2023-12-07T00:56:24;9.13;;;5.40;;
62852;SDS011;49205;44.868;38.140;2023-12-07T00:58:53;10.18;;;3.80;;
62852;SDS011;49205;44.868;38.140;2023-12-07T01:01:22;10.35;;;4.25;;
62852;SDS011;49205;44.868;38.140;2023-12-07T01:03:50;9.68;;;5.53;;
62852;SDS011;49205;44.868;38.140;2023-12-07T01:06:19;9.33;;;4.70;;
62852;SDS011;49205;44.868;38.140;2023-12-07T01:08:48;7.90;;;5.15;;
62852;SDS011;49205;44.868;38.140;2023-12-07T01:11:16;11.10;;;5.62;;
62852;SDS011;49205;44.868;38.140;2023-12-07T01:13:45;8.78;;;5.12;;
62852;SDS011;49205;44.868;38.140;2023-12-07T01:16:14;9.20;;;5.15;;
62852;SDS011;49205;44.868;38.140;2023-12-07T01:18:43;8.80;;;4.75;;
62852;SDS011;49205;44.868;38.140;2023-12-07T01:21:12;5.58;;;3.98;;
62852;SDS011;49205;44.868;38.140;2023-12-07T01:23:40;9.58;;;4.95;;
62852;SDS011;49205;44.868;38.140;2023-12-07T01:26:10;8.88;;;5.15;;
62852;SDS011;49205;44.868;38.140;2023-12-07T01:28:38;6.25;;;4.58;;
62852;SDS011;49205;44.868;38.140;2023-12-07T01:31:07;12.78;;;5.37;;
62852;SDS011;49205;44.868;38.140;2023-12-07T01:33:36;10.65;;;5.15;;
62852;SDS011;49205;44.868;38.140;2023-12-07T01:36:05;8.75;;;5.50;;
62852;SDS011;49205;44.868;38.140;2023-12-07T01:38:33;9.75;;;5.47;;
62852;SDS011;49205;44.868;38.140;2023-12-07T01:41:02;10.23;;;5.22;;
62852;SDS011;49205;44.868;38.140;2023-12-07T01:43:31;8.28;;;4.50;;
62852;SDS011;49205;44.868;38.140;2023-12-07T01:46:00;9.08;;;5.45;;
62852;SDS011;49205;44.868;38.140;2023-12-07T01:48:29;9.83;;;4.85;;
62852;SDS011;49205;44.868;38.140;2023-12-07T01:50:58;7.80;;;3.98;;
62852;SDS011;49205;44.868;38.140;2023-12-07T01:53:26;6.47;;;3.92;;
62852;SDS011;49205;44.868;38.140;2023-12-07T01:55:56;9.50;;;4.45;;
62852;SDS011;49205;44.868;38.140;2023-12-07T01:58:26;8.10;;;4.70;;
62852;SDS011;49205;44.868;38.140;2023-12-07T02:00:54;11.25;;;5.03;;
62852;SDS011;49205;44.868;38.140;2023-12-07T02:03:23;5.97;;;4.40;;
62852;SDS011;49205;44.868;38.140;2023-12-07T02:05:52;6.40;;;4.10;;
62852;SDS011;49205;44.868;38.140;2023-12-07T02:08:20;10.20;;;4.72;;
62852;SDS011;49205;44.868;38.140;2023-12-07T02:10:49;6.05;;;3.40;;
62852;SDS011;49205;44.868;38.140;2023-12-07T02:13:20;5.55;;;3.62;;
62852;SDS011;49205;44.868;38.140;2023-12-07T02:15:49;7.30;;;4.92;;
62852;SDS011;49205;44.868;38.140;2023-12-07T02:18:23;9.50;;;4.58;;
62852;SDS011;49205;44.868;38.140;2023-12-07T02:20:54;5.62;;;4.40;;
62852;SDS011;49205;44.868;38.140;2023-12-07T02:23:22;7.83;;;5.30;;
62852;SDS011;49205;44.868;38.140;2023-12-07T02:25:51;8.38;;;4.17;;
62852;SDS011;49205;44.868;38.140;2023-12-07T02:28:20;6.95;;;4.50;;
62852;SDS011;49205;44.868;38.140;2023-12-07T02:30:53;7.83;;;4.62;;
62852;SDS011;49205;44.868;38.140;2023-12-07T02:33:22;7.90;;;4.33;;
62852;SDS011;49205;44.868;38.140;2023-12-07T02:35:51;7.50;;;4.90;;
62852;SDS011;49205;44.868;38.140;2023-12-07T02:38:19;8.28;;;5.22;;
62852;SDS011;49205;44.868;38.140;2023-12-07T02:40:49;7.22;;;4.28;;
62852;SDS011;49205;44.868;38.140;2023-12-07T02:43:18;8.93;;;5.12;;
62852;SDS011;49205;44.868;38.140;2023-12-07T02:45:47;9.00;;;4.80;;
62852;SDS011;49205;44.868;38.140;2023-12-07T02:48:16;8.05;;;5.03;;
62852;SDS011;49205;44.868;38.140;2023-12-07T02:50:45;7.47;;;4.58;;
62852;SDS011;49205;44.868;38.140;2023-12-07T02:53:13;10.18;;;5.25;;
62852;SDS011;49205;44.868;38.140;2023-12-07T02:55:42;9.10;;;5.10;;
62852;SDS011;49205;44.868;38.140;2023-12-07T02:58:11;8.15;;;4.58;;
62852;SDS011;49205;44.868;38.140;2023-12-07T03:00:40;8.48;;;5.45;;
62852;SDS011;49205;44.868;38.140;2023-12-07T03:03:08;5.45;;;4.40;;
62852;SDS011;49205;44.868;38.140;2023-12-07T03:05:37;9.48;;;5.47;;
62852;SDS011;49205;44.868;38.140;2023-12-07T03:08:05;9.85;;;5.60;;
62852;SDS011;49205;44.868;38.140;2023-12-07T03:10:34;9.15;;;5.03;;
62852;SDS011;49205;44.868;38.140;2023-12-07T03:13:03;12.53;;;5.90;;
62852;SDS011;49205;44.868;38.140;2023-12-07T03:15:32;7.80;;;4.65;;
62852;SDS011;49205;44.868;38.140;2023-12-07T03:18:00;8.05;;;4.75;;
62852;SDS011;49205;44.868;38.140;2023-12-07T03:20:29;12.70;;;4.00;;
62852;SDS011;49205;44.868;38.140;2023-12-07T03:22:57;7.80;;;4.40;;
62852;SDS011;49205;44.868;38.140;2023-12-07T03:25:26;7.03;;;5.20;;
62852;SDS011;49205;44.868;38.140;2023-12-07T03:27:55;8.78;;;4.58;;
62852;SDS011;49205;44.868;38.140;2023-12-07T03:30:24;10.30;;;4.97;;
62852;SDS011;49205;44.868;38.140;2023-12-07T03:32:52;7.80;;;5.42;;
62852;SDS011;49205;44.868;38.140;2023-12-07T03:35:21;9.18;;;5.72;;
62852;SDS011;49205;44.868;38.140;2023-12-07T03:37:49;9.45;;;5.12;;
62852;SDS011;49205;44.868;38.140;2023-12-07T03:40:18;10.45;;;5.45;;
62852;SDS011;49205;44.868;38.140;2023-12-07T03:42:47;9.55;;;5.40;;
62852;SDS011;49205;44.868;38.140;2023-12-07T03:45:15;10.78;;;6.12;;
62852;SDS011;49205;44.868;38.140;2023-12-07T03:47:44;7.95;;;4.95;;
62852;SDS011;49205;44.868;38.140;2023-12-07T03:50:12;11.48;;;6.03;;
62852;SDS011;49205;44.868;38.140;2023-12-07T03:52:41;8.60;;;5.28;;
62852;SDS011;49205;44.868;38.140;2023-12-07T03:55:10;8.50;;;5.58;;
62852;SDS011;49205;44.868;38.140;2023-12-07T03:57:38;6.78;;;4.47;;
62852;SDS011;49205;44.868;38.140;2023-12-07T04:00:10;8.75;;;4.67;;
62852;SDS011;49205;44.868;38.140;2023-12-07T04:02:38;9.75;;;5.37;;
62852;SDS011;49205;44.868;38.140;2023-12-07T04:05:06;6.62;;;4.97;;
62852;SDS011;49205;44.868;38.140;2023-12-07T04:07:35;9.30;;;4.67;;
62852;SDS011;49205;44.868;38.140;2023-12-07T04:10:04;10.28;;;5.55;;
62852;SDS011;49205;44.868;38.140;2023-12-07T04:12:33;8.35;;;5.03;;
62852;SDS011;49205;44.868;38.140;2023-12-07T04:15:02;9.70;;;6.20;;
62852;SDS011;49205;44.868;38.140;2023-12-07T04:17:30;8.43;;;5.35;;
62852;SDS011;49205;44.868;38.140;2023-12-07T04:19:59;8.20;;;5.03;;
62852;SDS011;49205;44.868;38.140;2023-12-07T04:22:28;8.65;;;5.10;;
62852;SDS011;49205;44.868;38.140;2023-12-07T04:24:57;10.13;;;5.95;;
62852;SDS011;49205;44.868;38.140;2023-12-07T04:27:26;13.08;;;5.25;;
62852;SDS011;49205;44.868;38.140;2023-12-07T04:29:55;10.45;;;5.83;;
62852;SDS011;49205;44.868;38.140;2023-12-07T04:32:24;8.60;;;5.55;;
62852;SDS011;49205;44.868;38.140;2023-12-07T04:34:53;9.33;;;5.70;;
62852;SDS011;49205;44.868;38.140;2023-12-07T04:37:21;10.40;;;4.85;;
62852;SDS011;49205;44.868;38.140;2023-12-07T04:39:51;12.68;;;5.00;;
62852;SDS011;49205;44.868;38.140;2023-12-07T04:42:19;16.32;;;6.00;;
62852;SDS011;49205;44.868;38.140;2023-12-07T04:44:48;16.15;;;7.45;;
62852;SDS011;49205;44.868;38.140;2023-12-07T04:47:17;12.65;;;7.25;;
62852;SDS011;49205;44.868;38.140;2023-12-07T04:49:45;9.58;;;4.83;;
62852;SDS011;49205;44.868;38.140;2023-12-07T04:52:14;9.35;;;5.58;;
62852;SDS011;49205;44.868;38.140;2023-12-07T04:54:43;10.15;;;5.67;;
62852;SDS011;49205;44.868;38.140;2023-12-07T04:57:11;11.48;;;5.42;;
62852;SDS011;49205;44.868;38.140;2023-12-07T04:59:40;6.10;;;4.80;;
62852;SDS011;49205;44.868;38.140;2023-12-07T05:02:09;11.15;;;5.78;;
62852;SDS011;49205;44.868;38.140;2023-12-07T05:04:37;9.90;;;6.50;;
62852;SDS011;49205;44.868;38.140;2023-12-07T05:07:06;6.15;;;3.95;;
62852;SDS011;49205;44.868;38.140;2023-12-07T05:09:35;5.67;;;3.85;;
62852;SDS011;49205;44.868;38.140;2023-12-07T05:12:04;9.73;;;4.45;;
62852;SDS011;49205;44.868;38.140;2023-12-07T05:14:33;10.48;;;5.65;;
62852;SDS011;49205;44.868;38.140;2023-12-07T05:17:02;12.25;;;6.22;;
62852;SDS011;49205;44.868;38.140;2023-12-07T05:19:31;12.95;;;6.85;;
62852;SDS011;49205;44.868;38.140;2023-12-07T05:21:59;10.63;;;6.95;;
62852;SDS011;49205;44.868;38.140;2023-12-07T05:24:28;16.82;;;8.98;;
62852;SDS011;49205;44.868;38.140;2023-12-07T05:26:58;12.40;;;7.20;;
62852;SDS011;49205;44.868;38.140;2023-12-07T05:29:27;9.25;;;5.60;;
62852;SDS011;49205;44.868;38.140;2023-12-07T05:31:55;11.65;;;6.60;;
62852;SDS011;49205;44.868;38.140;2023-12-07T05:34:25;11.60;;;6.78;;
62852;SDS011;49205;44.868;38.140;2023-12-07T05:36:53;9.40;;;5.72;;
62852;SDS011;49205;44.868;38.140;2023-12-07T05:39:22;19.02;;;8.23;;
62852;SDS011;49205;44.868;38.140;2023-12-07T05:41:51;10.50;;;6.33;;
62852;SDS011;49205;44.868;38.140;2023-12-07T05:44:19;17.45;;;7.58;;
62852;SDS011;49205;44.868;38.140;2023-12-07T05:46:49;9.33;;;6.85;;
62852;SDS011;49205;44.868;38.140;2023-12-07T05:49:18;10.20;;;6.47;;
62852;SDS011;49205;44.868;38.140;2023-12-07T05:51:48;15.28;;;6.33;;
62852;SDS011;49205;44.868;38.140;2023-12-07T05:54:17;15.40;;;6.60;;
62852;SDS011;49205;44.868;38.140;2023-12-07T05:56:47;9.70;;;5.95;;
62852;SDS011;49205;44.868;38.140;2023-12-07T05:59:16;11.65;;;6.80;;
62852;SDS011;49205;44.868;38.140;2023-12-07T06:01:44;11.22;;;6.10;;
62852;SDS011;49205;44.868;38.140;2023-12-07T06:04:13;13.72;;;8.80;;
62852;SDS011;49205;44.868;38.140;2023-12-07T06:06:43;16.60;;;9.93;;
62852;SDS011;49205;44.868;38.140;2023-12-07T06:09:12;14.30;;;10.18;;
62852;SDS011;49205;44.868;38.140;2023-12-07T06:11:40;21.97;;;11.57;;
62852;SDS011;49205;44.868;38.140;2023-12-07T06:14:09;19.12;;;9.23;;
62852;SDS011;49205;44.868;38.140;2023-12-07T06:16:38;16.02;;;9.43;;
62852;SDS011;49205;44.868;38.140;2023-12-07T06:19:07;13.83;;;8.93;;
62852;SDS011;49205;44.868;38.140;2023-12-07T06:21:36;8.78;;;5.85;;
62852;SDS011;49205;44.868;38.140;2023-12-07T06:24:04;12.18;;;4.92;;
62852;SDS011;49205;44.868;38.140;2023-12-07T06:26:34;11.25;;;6.72;;
62852;SDS011;49205;44.868;38.140;2023-12-07T06:29:03;10.20;;;5.53;;
62852;SDS011;49205;44.868;38.140;2023-12-07T06:31:32;10.43;;;6.10;;
62852;SDS011;49205;44.868;38.140;2023-12-07T06:34:01;8.98;;;5.37;;
62852;SDS011;49205;44.868;38.140;2023-12-07T06:36:30;11.80;;;6.00;;
62852;SDS011;49205;44.868;38.140;2023-12-07T06:38:58;7.25;;;4.80;;
62852;SDS011;49205;44.868;38.140;2023-12-07T06:41:27;10.80;;;7.12;;
62852;SDS011;49205;44.868;38.140;2023-12-07T06:43:56;8.95;;;4.83;;
62852;SDS011;49205;44.868;38.140;2023-12-07T06:46:25;12.60;;;8.75;;
62852;SDS011;49205;44.868;38.140;2023-12-07T06:48:53;12.37;;;8.00;;
62852;SDS011;49205;44.868;38.140;2023-12-07T06:51:22;7.17;;;5.28;;
62852;SDS011;49205;44.868;38.140;2023-12-07T06:53:51;3.90;;;3.08;;
62852;SDS011;49205;44.868;38.140;2023-12-07T06:56:20;5.65;;;4.53;;
62852;SDS011;49205;44.868;38.140;2023-12-07T06:58:49;5.50;;;4.30;;
62852;SDS011;49205;44.868;38.140;2023-12-07T07:01:18;7.85;;;2.92;;
62852;SDS011;49205;44.868;38.140;2023-12-07T07:03:46;8.38;;;4.72;;
62852;SDS011;49205;44.868;38.140;2023-12-07T07:06:15;7.00;;;4.75;;
62852;SDS011;49205;44.868;38.140;2023-12-07T07:08:44;5.92;;;3.98;;
62852;SDS011;49205;44.868;38.140;2023-12-07T07:11:13;7.87;;;4.15;;
62852;SDS011;49205;44.868;38.140;2023-12-07T07:13:42;7.65;;;4.30;;
62852;SDS011;49205;44.868;38.140;2023-12-07T07:16:11;6.35;;;4.25;;
62852;SDS011;49205;44.868;38.140;2023-12-07T07:18:39;9.23;;;4.95;;
62852;SDS011;49205;44.868;38.140;2023-12-07T07:21:08;6.83;;;3.87;;
62852;SDS011;49205;44.868;38.140;2023-12-07T07:23:37;6.53;;;3.30;;
62852;SDS011;49205;44.868;38.140;2023-12-07T07:26:05;5.03;;;2.80;;
62852;SDS011;49205;44.868;38.140;2023-12-07T07:28:35;8.33;;;4.67;;
62852;SDS011;49205;44.868;38.140;2023-12-07T07:31:04;7.10;;;3.95;;
62852;SDS011;49205;44.868;38.140;2023-12-07T07:33:33;5.60;;;2.90;;
62852;SDS011;49205;44.868;38.140;2023-12-07T07:36:01;6.05;;;3.65;;
62852;SDS011;49205;44.868;38.140;2023-12-07T07:38:30;3.62;;;2.67;;
62852;SDS011;49205;44.868;38.140;2023-12-07T07:40:59;4.08;;;2.12;;
62852;SDS011;49205;44.868;38.140;2023-12-07T07:43:27;7.97;;;5.15;;
62852;SDS011;49205;44.868;38.140;2023-12-07T07:45:56;6.83;;;4.83;;
62852;SDS011;49205;44.868;38.140;2023-12-07T07:48:24;8.10;;;4.55;;
62852;SDS011;49205;44.868;38.140;2023-12-07T07:50:54;7.83;;;4.08;;
62852;SDS011;49205;44.868;38.140;2023-12-07T07:53:22;5.87;;;3.30;;
62852;SDS011;49205;44.868;38.140;2023-12-07T07:55:51;11.22;;;5.47;;
62852;SDS011;49205;44.868;38.140;2023-12-07T07:58:20;5.62;;;3.10;;
62852;SDS011;49205;44.868;38.140;2023-12-07T08:00:49;8.20;;;4.47;;
62852;SDS011;49205;44.868;38.140;2023-12-07T08:03:19;5.10;;;3.17;;
62852;SDS011;49205;44.868;38.140;2023-12-07T08:05:47;5.90;;;3.70;;
62852;SDS011;49205;44.868;38.140;2023-12-07T08:08:16;2.98;;;2.30;;
62852;SDS011;49205;44.868;38.140;2023-12-07T08:10:45;6.20;;;4.28;;
62852;SDS011;49205;44.868;38.140;2023-12-07T08:13:14;7.67;;;3.98;;
62852;SDS011;49205;44.868;38.140;2023-12-07T08:15:42;10.18;;;6.28;;
62852;SDS011;49205;44.868;38.140;2023-12-07T08:18:11;7.70;;;4.42;;
62852;SDS011;49205;44.868;38.140;2023-12-07T08:20:41;3.60;;;2.45;;
62852;SDS011;49205;44.868;38.140;2023-12-07T08:23:10;3.47;;;2.37;;
62852;SDS011;49205;44.868;38.140;2023-12-07T08:25:39;7.28;;;3.60;;
62852;SDS011;49205;44.868;38.140;2023-12-07T08:28:07;4.22;;;2.42;;
62852;SDS011;49205;44.868;38.140;2023-12-07T08:30:36;4.92;;;3.42;;
62852;SDS011;49205;44.868;38.140;2023-12-07T08:33:05;4.85;;;3.85;;
62852;SDS011;49205;44.868;38.140;2023-12-07T08:35:34;6.00;;;3.90;;
62852;SDS011;49205;44.868;38.140;2023-12-07T08:38:02;3.80;;;2.35;;
62852;SDS011;49205;44.868;38.140;2023-12-07T08:40:32;3.37;;;2.05;;
62852;SDS011;49205;44.868;38.140;2023-12-07T08:43:01;2.65;;;2.27;;
62852;SDS011;49205;44.868;38.140;2023-12-07T08:45:29;4.08;;;3.25;;
62852;SDS011;49205;44.868;38.140;2023-12-07T08:47:58;4.40;;;2.77;;
62852;SDS011;49205;44.868;38.140;2023-12-07T08:50:27;4.97;;;3.30;;
62852;SDS011;49205;44.868;38.140;2023-12-07T08:52:56;4.70;;;3.10;;
62852;SDS011;49205;44.868;38.140;2023-12-07T08:55:30;2.45;;;1.60;;
62852;SDS011;49205;44.868;38.140;2023-12-07T08:58:08;2.40;;;2.00;;
62852;SDS011;49205;44.868;38.140;2023-12-07T09:00:48;2.17;;;1.98;;
62852;SDS011;49205;44.868;38.140;2023-12-07T09:03:25;1.67;;;1.42;;
62852;SDS011;49205;44.868;38.140;2023-12-07T09:06:01;2.20;;;1.87;;
62852;SDS011;49205;44.868;38.140;2023-12-07T09:08:43;12.95;;;2.20;;
62852;SDS011;49205;44.868;38.140;2023-12-07T09:11:22;2.83;;;2.10;;
62852;SDS011;49205;44.868;38.140;2023-12-07T09:13:56;3.80;;;1.70;;
62852;SDS011;49205;44.868;38.140;2023-12-07T09:16:27;4.17;;;2.67;;
62852;SDS011;49205;44.868;38.140;2023-12-07T09:18:55;3.87;;;3.17;;
62852;SDS011;49205;44.868;38.140;2023-12-07T09:21:24;4.00;;;3.20;;
62852;SDS011;49205;44.868;38.140;2023-12-07T09:23:53;2.62;;;2.25;;
62852;SDS011;49205;44.868;38.140;2023-12-07T09:26:21;6.70;;;2.72;;
62852;SDS011;49205;44.868;38.140;2023-12-07T09:28:50;3.33;;;2.90;;
62852;SDS011;49205;44.868;38.140;2023-12-07T09:31:19;5.22;;;2.10;;
62852;SDS011;49205;44.868;38.140;2023-12-07T09:33:47;3.62;;;2.08;;
62852;SDS011;49205;44.868;38.140;2023-12-07T09:36:19;2.27;;;1.60;;
62852;SDS011;49205;44.868;38.140;2023-12-07T09:38:49;7.10;;;2.72;;
62852;SDS011;49205;44.868;38.140;2023-12-07T09:41:17;2.20;;;1.80;;
62852;SDS011;49205;44.868;38.140;2023-12-07T09:43:47;2.25;;;1.45;;
62852;SDS011;49205;44.868;38.140;2023-12-07T09:46:16;6.05;;;2.90;;
62852;SDS011;49205;44.868;38.140;2023-12-07T09:48:45;3.67;;;1.72;;
62852;SDS011;49205;44.868;38.140;2023-12-07T09:51:15;3.27;;;1.98;;
62852;SDS011;49205;44.868;38.140;2023-12-07T09:53:44;6.00;;;3.83;;
62852;SDS011;49205;44.868;38.140;2023-12-07T09:56:13;3.85;;;2.35;;
62852;SDS011;49205;44.868;38.140;2023-12-07T09:58:42;3.08;;;2.27;;
62852;SDS011;49205;44.868;38.140;2023-12-07T10:01:10;4.17;;;2.75;;
62852;SDS011;49205;44.868;38.140;2023-12-07T10:03:41;1.25;;;1.15;;
62852;SDS011;49205;44.868;38.140;2023-12-07T10:06:10;2.00;;;1.90;;
62852;SDS011;49205;44.868;38.140;2023-12-07T10:08:39;2.08;;;1.87;;
62852;SDS011;49205;44.868;38.140;2023-12-07T10:11:08;1.60;;;1.35;;
62852;SDS011;49205;44.868;38.140;2023-12-07T10:15:25;5.37;;;2.60;;
62852;SDS011;49205;44.868;38.140;2023-12-07T11:12:11;5.00;;;3.10;;
62852;SDS011;49205;44.868;38.140;2023-12-07T11:17:06;3.75;;;2.15;;
62852;SDS011;49205;44.868;38.140;2023-12-07T11:22:06;6.20;;;2.98;;
62852;SDS011;49205;44.868;38.140;2023-12-07T11:24:35;6.28;;;3.83;;
62852;SDS011;49205;44.868;38.140;2023-12-07T11:27:04;2.83;;;2.50;;
62852;SDS011;49205;44.868;38.140;2023-12-07T11:29:33;1.72;;;1.60;;
62852;SDS011;49205;44.868;38.140;2023-12-07T11:33:56;8.00;;;2.72;;
62852;SDS011;49205;44.868;38.140;2023-12-07T11:36:26;7.62;;;4.53;;
62852;SDS011;49205;44.868;38.140;2023-12-07T11:39:37;5.20;;;3.37;;
62852;SDS011;49205;44.868;38.140;2023-12-07T11:41:40;8.93;;;2.58;;
62852;SDS011;49205;44.868;38.140;2023-12-07T11:44:12;5.08;;;2.60;;
62852;SDS011;49205;44.868;38.140;2023-12-07T11:46:41;4.95;;;3.05;;
62852;SDS011;49205;44.868;38.140;2023-12-07T11:49:10;7.42;;;3.55;;
62852;SDS011;49205;44.868;38.140;2023-12-07T11:51:41;5.83;;;3.47;;
62852;SDS011;49205;44.868;38.140;2023-12-07T11:54:10;4.05;;;2.65;;
62852;SDS011;49205;44.868;38.140;2023-12-07T11:56:39;3.90;;;2.95;;
62852;SDS011;49205;44.868;38.140;2023-12-07T11:59:09;4.62;;;2.80;;
62852;SDS011;49205;44.868;38.140;2023-12-07T12:01:38;8.25;;;4.08;;
62852;SDS011;49205;44.868;38.140;2023-12-07T12:04:07;6.37;;;3.77;;
62852;SDS011;49205;44.868;38.140;2023-12-07T12:07:35;6.80;;;4.28;;
62852;SDS011;49205;44.868;38.140;2023-12-07T12:10:05;9.08;;;4.95;;
62852;SDS011;49205;44.868;38.140;2023-12-07T12:12:35;6.17;;;3.77;;
62852;SDS011;49205;44.868;38.140;2023-12-07T12:15:04;4.08;;;3.50;;
62852;SDS011;49205;44.868;38.140;2023-12-07T12:17:34;7.33;;;4.35;;
62852;SDS011;49205;44.868;38.140;2023-12-07T12:20:04;8.43;;;3.42;;
62852;SDS011;49205;44.868;38.140;2023-12-07T12:22:35;1.72;;;1.62;;
62852;SDS011;49205;44.868;38.140;2023-12-07T12:25:05;6.37;;;3.40;;
62852;SDS011;49205;44.868;38.140;2023-12-07T12:27:35;12.55;;;3.85;;
62852;SDS011;49205;44.868;38.140;2023-12-07T12:30:04;4.40;;;2.67;;
62852;SDS011;49205;44.868;38.140;2023-12-07T12:32:44;3.50;;;2.47;;
62852;SDS011;49205;44.868;38.140;2023-12-07T12:35:13;2.83;;;2.25;;
62852;SDS011;49205;44.868;38.140;2023-12-07T12:37:43;5.17;;;3.85;;
62852;SDS011;49205;44.868;38.140;2023-12-07T12:40:14;4.78;;;3.55;;
62852;SDS011;49205;44.868;38.140;2023-12-07T12:42:48;3.75;;;3.27;;
62852;SDS011;49205;44.868;38.140;2023-12-07T12:45:18;6.45;;;3.52;;
62852;SDS011;49205;44.868;38.140;2023-12-07T12:47:48;5.00;;;3.02;;
62852;SDS011;49205;44.868;38.140;2023-12-07T12:50:33;5.30;;;3.20;;
62852;SDS011;49205;44.868;38.140;2023-12-07T12:53:07;2.95;;;2.58;;
62852;SDS011;49205;44.868;38.140;2023-12-07T12:55:38;5.90;;;4.20;;
62852;SDS011;49205;44.868;38.140;2023-12-07T12:58:09;4.30;;;3.47;;
62852;SDS011;49205;44.868;38.140;2023-12-07T13:00:38;3.80;;;2.67;;
62852;SDS011;49205;44.868;38.140;2023-12-07T13:03:08;2.70;;;2.45;;
62852;SDS011;49205;44.868;38.140;2023-12-07T13:05:39;4.67;;;2.80;;
62852;SDS011;49205;44.868;38.140;2023-12-07T13:08:08;6.53;;;3.98;;
62852;SDS011;49205;44.868;38.140;2023-12-07T13:10:37;6.80;;;2.83;;
62852;SDS011;49205;44.868;38.140;2023-12-07T13:13:07;5.37;;;3.10;;
62852;SDS011;49205;44.868;38.140;2023-12-07T13:15:36;2.83;;;2.15;;
62852;SDS011;49205;44.868;38.140;2023-12-07T13:18:06;7.03;;;4.12;;
62852;SDS011;49205;44.868;38.140;2023-12-07T13:20:35;6.70;;;4.78;;
62852;SDS011;49205;44.868;38.140;2023-12-07T13:23:04;7.35;;;3.87;;
62852;SDS011;49205;44.868;38.140;2023-12-07T13:25:33;5.40;;;3.75;;
62852;SDS011;49205;44.868;38.140;2023-12-07T13:28:02;4.72;;;3.52;;
62852;SDS011;49205;44.868;38.140;2023-12-07T13:30:32;3.08;;;2.20;;
62852;SDS011;49205;44.868;38.140;2023-12-07T13:33:02;16.17;;;7.80;;
62852;SDS011;49205;44.868;38.140;2023-12-07T13:35:31;5.10;;;3.77;;
62852;SDS011;49205;44.868;38.140;2023-12-07T13:38:01;4.20;;;2.52;;
62852;SDS011;49205;44.868;38.140;2023-12-07T13:40:30;2.30;;;1.27;;
62852;SDS011;49205;44.868;38.140;2023-12-07T13:43:00;5.12;;;2.77;;
62852;SDS011;49205;44.868;38.140;2023-12-07T13:45:30;2.00;;;1.60;;
62852;SDS011;49205;44.868;38.140;2023-12-07T13:47:59;7.42;;;2.87;;
62852;SDS011;49205;44.868;38.140;2023-12-07T13:50:28;4.22;;;2.52;;
62852;SDS011;49205;44.868;38.140;2023-12-07T13:52:57;4.03;;;2.15;;
62852;SDS011;49205;44.868;38.140;2023-12-07T13:55:26;6.70;;;3.60;;
62852;SDS011;49205;44.868;38.140;2023-12-07T13:57:56;3.40;;;3.10;;
62852;SDS011;49205;44.868;38.140;2023-12-07T14:00:26;6.08;;;3.00;;
62852;SDS011;49205;44.868;38.140;2023-12-07T14:02:55;5.85;;;3.47;;
62852;SDS011;49205;44.868;38.140;2023-12-07T14:05:24;10.68;;;4.00;;
62852;SDS011;49205;44.868;38.140;2023-12-07T14:07:54;4.00;;;2.55;;
62852;SDS011;49205;44.868;38.140;2023-12-07T14:10:23;5.70;;;4.10;;
62852;SDS011;49205;44.868;38.140;2023-12-07T14:12:53;6.83;;;4.12;;
62852;SDS011;49205;44.868;38.140;2023-12-07T14:15:22;4.17;;;2.00;;
62852;SDS011;49205;44.868;38.140;2023-12-07T14:17:51;4.50;;;3.40;;
62852;SDS011;49205;44.868;38.140;2023-12-07T14:20:21;4.00;;;2.60;;
62852;SDS011;49205;44.868;38.140;2023-12-07T14:22:52;11.12;;;3.95;;
62852;SDS011;49205;44.868;38.140;2023-12-07T14:25:21;8.53;;;4.10;;
62852;SDS011;49205;44.868;38.140;2023-12-07T14:27:51;6.33;;;3.92;;
62852;SDS011;49205;44.868;38.140;2023-12-07T14:30:20;5.92;;;3.75;;
62852;SDS011;49205;44.868;38.140;2023-12-07T14:32:49;4.78;;;3.98;;
62852;SDS011;49205;44.868;38.140;2023-12-07T14:35:21;8.50;;;3.52;;
62852;SDS011;49205;44.868;38.140;2023-12-07T14:37:52;9.33;;;4.58;;
62852;SDS011;49205;44.868;38.140;2023-12-07T14:40:21;4.85;;;3.37;;
62852;SDS011;49205;44.868;38.140;2023-12-07T14:42:51;8.73;;;4.40;;
62852;SDS011;49205;44.868;38.140;2023-12-07T14:45:20;7.80;;;4.15;;
62852;SDS011;49205;44.868;38.140;2023-12-07T14:47:49;5.33;;;4.15;;
62852;SDS011;49205;44.868;38.140;2023-12-07T14:50:18;8.50;;;4.55;;
62852;SDS011;49205;44.868;38.140;2023-12-07T14:52:48;4.67;;;3.83;;
62852;SDS011;49205;44.868;38.140;2023-12-07T14:55:17;8.35;;;4.60;;
62852;SDS011;49205;44.868;38.140;2023-12-07T14:57:46;5.15;;;3.72;;
62852;SDS011;49205;44.868;38.140;2023-12-07T15:00:17;11.83;;;4.92;;
62852;SDS011;49205;44.868;38.140;2023-12-07T15:02:47;10.38;;;5.37;;
62852;SDS011;49205;44.868;38.140;2023-12-07T15:05:16;7.80;;;4.87;;
62852;SDS011;49205;44.868;38.140;2023-12-07T15:07:45;10.10;;;4.37;;
62852;SDS011;49205;44.868;38.140;2023-12-07T15:10:15;8.38;;;5.28;;
62852;SDS011;49205;44.868;38.140;2023-12-07T15:12:45;12.80;;;5.62;;
62852;SDS011;49205;44.868;38.140;2023-12-07T15:15:15;8.40;;;5.50;;
62852;SDS011;49205;44.868;38.140;2023-12-07T15:17:44;8.95;;;5.60;;
62852;SDS011;49205;44.868;38.140;2023-12-07T15:20:14;11.55;;;7.17;;
62852;SDS011;49205;44.868;38.140;2023-12-07T15:22:43;11.97;;;6.40;;
62852;SDS011;49205;44.868;38.140;2023-12-07T15:25:12;15.15;;;7.30;;
62852;SDS011;49205;44.868;38.140;2023-12-07T15:27:42;8.48;;;4.95;;
62852;SDS011;49205;44.868;38.140;2023-12-07T15:30:13;10.68;;;5.17;;
62852;SDS011;49205;44.868;38.140;2023-12-07T15:32:42;5.03;;;3.55;;
62852;SDS011;49205;44.868;38.140;2023-12-07T15:35:11;9.00;;;4.00;;
62852;SDS011;49205;44.868;38.140;2023-12-07T15:37:41;8.30;;;3.98;;
62852;SDS011;49205;44.868;38.140;2023-12-07T15:40:10;8.73;;;4.97;;
62852;SDS011;49205;44.868;38.140;2023-12-07T15:42:39;9.53;;;4.92;;
62852;SDS011;49205;44.868;38.140;2023-12-07T15:45:08;7.17;;;4.12;;
62852;SDS011;49205;44.868;38.140;2023-12-07T15:47:38;7.58;;;4.78;;